Toamasina, Madagascar
Current Conditions -  °F | °C
As of 9:00 AM on Thursday 27 Nov 2014 (Local Time) from FMMT Reporting Station
Scattered Clouds Scattered Clouds  
Wind Chill: 82°   Ceiling: Unl
Heat Index: 89°   Visibility: 6mi
Dew Point: 75°   Wind: 9mph
Humidity: 79%   Direction: 60°ENE
Pressure: 29.77"   Gusts: NA
Location:  18.15°S, 49.4°E
Report Text: FMMT 270600Z 06008KT 9999 FEW017 SCT233 28/24 Q1008 NOSIG
Loading
Personal Weather Stations






























Interactive Weather Map New forecast layout! Learn more

10-Day Weather Forecast

Advertisements
Track Severe Weather on mobile